Time;durP1;ratioP1;P1;durP2;ratioP2;P2;SDS_P1;SDS_P2;PMS_P1;PMS_P2;Temp;Humidity;BMP_temperature;BMP_pressure;BME280_temperature;BME280_humidity;BME280_pressure;Samples;Min_cycle;Max_cycle;Signal;HPM_P1;HPM_P2
2022/11/07 00:02:07;;;;;;;;;;;;;;;;;;5054479;28;1905;-78
2022/11/07 00:04:32;;;;;;;;;;;;;;;;;;5054446;28;1170;-78
2022/11/07 00:06:58;;;;;;;;;;;;;;;;;;5055546;28;912;-78
2022/11/07 00:09:23;;;;;;;;;;;;;;;;;;5070434;28;1273;-77
2022/11/07 00:11:49;;;;;;;;;;;;;;;;;;5055556;28;731;-78
2022/11/07 00:14:15;;;;;;;;;;;;;;;;;;5087533;28;1158;-77
2022/11/07 00:16:41;;;;;;;;;;;;;;;;;;5054387;28;1370;-78
2022/11/07 00:19:06;;;;;;;;;;;;;;;;;;5053789;28;1410;-77
2022/11/07 00:21:32;;;;;;;;;;;;;;;;;;5087303;28;813;-76
2022/11/07 00:23:57;;;;;;;;;;;;;;;;;;5054147;28;1913;-77
2022/11/07 00:26:23;;;;;;;;;;;;;;;;;;5087372;28;1176;-77
2022/11/07 00:28:48;;;;;;;;;;;;;;;;;;5053307;28;1345;-76
2022/11/07 00:31:15;;;;;;;;;;;;;;;;;;5087265;28;1160;-77
2022/11/07 00:33:41;;;;;;;;;;;;;;;;;;5053610;28;1300;-77
2022/11/07 00:36:06;;;;;;;;;;;;;;;;;;5068335;28;1180;-78
2022/11/07 00:38:32;;;;;;;;;;;;;;;;;;5063391;28;1305;-78
2022/11/07 00:40:58;;;;;;;;;;;;;;;;;;5070990;28;1352;-78
2022/11/07 00:43:23;;;;;;;;;;;;;;;;;;5080655;28;1902;-78
2022/11/07 00:45:49;;;;;;;;;;;;;;;;;;5095891;28;1282;-77
2022/11/07 00:48:14;;;;;;;;;;;;;;;;;;5094698;28;1126;-78
2022/11/07 00:50:40;;;;;;;;;;;;;;;;;;5094745;28;1292;-78
2022/11/07 00:53:05;;;;;;;;;;;;;;;;;;5094833;28;1177;-78
2022/11/07 00:55:30;;;;;;;;;;;;;;;;;;5075934;28;1230;-78
2022/11/07 00:57:56;;;;;;;;;;;;;;;;;;5094590;28;1142;-77
2022/11/07 01:00:21;;;;;;;;;;;;;;;;;;5094334;28;848;-77
2022/11/07 01:06:00;;;;;;;;;;;;;;;;;;5094980;28;736;-78
2022/11/07 01:08:25;;;;;;;;;;;;;;;;;;5094715;28;847;-77
2022/11/07 01:10:51;;;;;;;;;;;;;;;;;;5093447;28;1272;-78
2022/11/07 01:13:16;;;;;;;;;;;;;;;;;;5094748;28;962;-78
2022/11/07 01:15:41;;;;;;;;;;;;;;;;;;5094636;28;1022;-78
2022/11/07 01:18:07;;;;;;;;;;;;;;;;;;5093697;28;1108;-78
2022/11/07 01:20:32;;;;;;;;;;;;;;;;;;5092351;28;1067;-78
2022/11/07 01:22:57;;;;;;;;;;;;;;;;;;5093174;28;1898;-77
2022/11/07 01:25:22;;;;;;;;;;;;;;;;;;5094077;28;948;-78
2022/11/07 01:27:47;;;;;;;;;;;;;;;;;;5092454;28;1342;-77
2022/11/07 01:30:13;;;;;;;;;;;;;;;;;;5076235;28;1265;-77
2022/11/07 01:32:38;;;;;;;;;;;;;;;;;;5094398;28;852;-77
2022/11/07 01:35:04;;;;;;;;;;;;;;;;;;5092793;28;1102;-77
2022/11/07 01:37:29;;;;;;;;;;;;;;;;;;5093679;28;797;-78
2022/11/07 01:39:55;;;;;;;;;;;;;;;;;;5092611;28;1097;-78
2022/11/07 01:42:20;;;;;;;;;;;;;;;;;;5093767;28;1966;-78
2022/11/07 01:44:50;;;;;;;;;;;;;;;;;;5092379;28;1245;-78
2022/11/07 01:47:15;;;;;;;;;;;;;;;;;;5093646;28;947;-78
2022/11/07 01:49:42;;;;;;;;;;;;;;;;;;5091958;28;995;-78
2022/11/07 01:52:13;;;;;;;;;;;;;;;;;;5092562;28;1179;-78
2022/11/07 01:54:52;;;;;;;;;;;;;;;;;;5093821;28;872;-78
2022/11/07 01:57:26;;;;;;;;;;;;;;;;;;5092348;28;1221;-78
2022/11/07 01:59:53;;;;;;;;;;;;;;;;;;5092602;28;1428;-78
2022/11/07 02:02:18;;;;;;;;;;;;;;;;;;5093584;28;1936;-78
2022/11/07 02:04:44;;;;;;;;;;;;;;;;;;5092365;28;1222;-78
2022/11/07 02:07:17;;;;;;;;;;;;;;;;;;5091942;28;903;-78
2022/11/07 02:09:42;;;;;;;;;;;;;;;;;;5093329;28;943;-78
2022/11/07 02:12:08;;;;;;;;;;;;;;;;;;5093433;28;990;-78
2022/11/07 02:14:33;;;;;;;;;;;;;;;;;;5091745;28;1210;-78
2022/11/07 02:16:59;;;;;;;;;;;;;;;;;;5091504;28;1268;-78
2022/11/07 02:19:34;;;;;;;;;;;;;;;;;;5092727;28;1268;-78
2022/11/07 02:22:03;;;;;;;;;;;;;;;;;;5093001;28;1324;-78
2022/11/07 02:24:30;;;;;;;;;;;;;;;;;;5093899;28;1973;-78
2022/11/07 02:26:57;;;;;;;;;;;;;;;;;;5092969;28;1299;-78
2022/11/07 02:29:23;;;;;;;;;;;;;;;;;;5094293;28;830;-77
2022/11/07 02:31:58;;;;;;;;;;;;;;;;;;5094355;28;841;-77
2022/11/07 02:34:24;;;;;;;;;;;;;;;;;;5092384;28;1253;-76
2022/11/07 02:36:49;;;;;;;;;;;;;;;;;;5092920;28;856;-76
2022/11/07 02:39:14;;;;;;;;;;;;;;;;;;5093657;28;856;-77
2022/11/07 02:41:40;;;;;;;;;;;;;;;;;;5092405;28;912;-77
2022/11/07 02:44:07;;;;;;;;;;;;;;;;;;5092375;28;1906;-76
2022/11/07 02:46:33;;;;;;;;;;;;;;;;;;5092513;28;1403;-76
2022/11/07 02:48:59;;;;;;;;;;;;;;;;;;5091936;28;825;-77
2022/11/07 02:51:25;;;;;;;;;;;;;;;;;;5093463;28;956;-77
2022/11/07 02:53:50;;;;;;;;;;;;;;;;;;5091650;28;1295;-77
2022/11/07 02:56:16;;;;;;;;;;;;;;;;;;5075602;28;1147;-77
2022/11/07 02:58:41;;;;;;;;;;;;;;;;;;5092138;28;777;-77
2022/11/07 03:01:07;;;;;;;;;;;;;;;;;;5091457;28;1317;-77
2022/11/07 03:03:40;;;;;;;;;;;;;;;;;;5091101;28;1973;-77
2022/11/07 03:06:06;;;;;;;;;;;;;;;;;;5093123;28;899;-78
2022/11/07 03:08:31;;;;;;;;;;;;;;;;;;5092421;28;1015;-77
2022/11/07 03:10:56;;;;;;;;;;;;;;;;;;5092814;28;903;-78
2022/11/07 03:13:22;;;;;;;;;;;;;;;;;;5093042;28;1030;-77
2022/11/07 03:15:48;;;;;;;;;;;;;;;;;;5090842;28;900;-78
2022/11/07 03:18:13;;;;;;;;;;;;;;;;;;5091302;28;890;-78
2022/11/07 03:20:38;;;;;;;;;;;;;;;;;;5095247;28;1079;-78
2022/11/07 03:23:04;;;;;;;;;;;;;;;;;;5078274;28;1914;-78
2022/11/07 03:25:29;;;;;;;;;;;;;;;;;;5095051;28;1186;-78
2022/11/07 03:27:54;;;;;;;;;;;;;;;;;;5078191;28;1377;-78
2022/11/07 03:30:19;;;;;;;;;;;;;;;;;;5096714;28;931;-78
2022/11/07 03:32:45;;;;;;;;;;;;;;;;;;5095066;28;1003;-78
2022/11/07 03:35:10;;;;;;;;;;;;;;;;;;5096561;28;1049;-78
2022/11/07 03:37:54;;;;;;;;;;;;;;;;;;5096607;28;856;-78
2022/11/07 03:40:19;;;;;;;;;;;;;;;;;;5096393;28;845;-78
2022/11/07 03:42:45;;;;;;;;;;;;;;;;;;5094646;28;1906;-78
2022/11/07 03:45:11;;;;;;;;;;;;;;;;;;5096555;28;1161;-78
2022/11/07 03:47:38;;;;;;;;;;;;;;;;;;5095370;28;1190;-78
2022/11/07 03:50:04;;;;;;;;;;;;;;;;;;5095231;28;1277;-78
2022/11/07 03:52:29;;;;;;;;;;;;;;;;;;5095819;28;1243;-78
2022/11/07 03:54:54;;;;;;;;;;;;;;;;;;5095265;28;1143;-78
2022/11/07 03:57:20;;;;;;;;;;;;;;;;;;5094610;28;947;-78
2022/11/07 03:59:46;;;;;;;;;;;;;;;;;;5093766;28;904;-78
2022/11/07 04:02:11;;;;;;;;;;;;;;;;;;5094386;28;860;-78
2022/11/07 04:04:36;;;;;;;;;;;;;;;;;;5093769;28;1898;-78
2022/11/07 04:07:02;;;;;;;;;;;;;;;;;;5095221;28;948;-78
2022/11/07 04:09:27;;;;;;;;;;;;;;;;;;5093489;28;900;-78
2022/11/07 04:17:20;;;;;;;;;;;;;;;;;;5094850;28;790;-78
2022/11/07 04:19:46;;;;;;;;;;;;;;;;;;5094067;28;897;-78
2022/11/07 04:22:15;;;;;;;;;;;;;;;;;;5095741;28;864;-78
2022/11/07 04:24:41;;;;;;;;;;;;;;;;;;5093945;28;1201;-78
2022/11/07 04:29:51;;;;;;;;;;;;;;;;;;5095132;28;676;-78
2022/11/07 04:32:17;;;;;;;;;;;;;;;;;;5095326;28;876;-78
2022/11/07 04:34:42;;;;;;;;;;;;;;;;;;5077483;28;1218;-78
2022/11/07 04:37:07;;;;;;;;;;;;;;;;;;5094714;28;1173;-78
2022/11/07 04:39:32;;;;;;;;;;;;;;;;;;5094201;28;1228;-78
2022/11/07 04:41:58;;;;;;;;;;;;;;;;;;5093315;28;1268;-78
2022/11/07 04:44:23;;;;;;;;;;;;;;;;;;5093579;28;1972;-78
2022/11/07 04:46:48;;;;;;;;;;;;;;;;;;5093963;28;876;-77
2022/11/07 04:49:14;;;;;;;;;;;;;;;;;;5077122;28;1190;-77
2022/11/07 04:51:42;;;;;;;;;;;;;;;;;;5076363;28;1144;-77
2022/11/07 04:54:12;;;;;;;;;;;;;;;;;;5093238;28;1202;-77
2022/11/07 04:56:37;;;;;;;;;;;;;;;;;;5075074;28;1232;-77
2022/11/07 04:59:03;;;;;;;;;;;;;;;;;;5073544;28;1036;-77
2022/11/07 05:01:28;;;;;;;;;;;;;;;;;;5056982;28;1163;-77
2022/11/07 05:03:53;;;;;;;;;;;;;;;;;;5056317;28;1902;-77
2022/11/07 05:06:19;;;;;;;;;;;;;;;;;;5074754;28;1006;-78
2022/11/07 05:08:44;;;;;;;;;;;;;;;;;;5074469;28;848;-77
2022/11/07 05:11:10;;;;;;;;;;;;;;;;;;5073491;28;1190;-77
2022/11/07 05:13:35;;;;;;;;;;;;;;;;;;5056859;28;1247;-77
2022/11/07 05:16:00;;;;;;;;;;;;;;;;;;5056792;28;1258;-77
2022/11/07 05:18:25;;;;;;;;;;;;;;;;;;5073553;28;1254;-77
2022/11/07 05:20:51;;;;;;;;;;;;;;;;;;5075156;28;804;-77
2022/11/07 05:23:17;;;;;;;;;;;;;;;;;;5074699;28;1902;-77
2022/11/07 05:25:52;;;;;;;;;;;;;;;;;;5057140;28;1321;-77
2022/11/07 05:28:19;;;;;;;;;;;;;;;;;;5073064;28;1153;-77
2022/11/07 05:30:45;;;;;;;;;;;;;;;;;;5072769;28;1099;-77
2022/11/07 05:33:11;;;;;;;;;;;;;;;;;;5076569;28;1131;-78
2022/11/07 05:35:37;;;;;;;;;;;;;;;;;;5077531;28;1253;-77
2022/11/07 05:38:02;;;;;;;;;;;;;;;;;;5086132;28;1251;-78
2022/11/07 05:40:27;;;;;;;;;;;;;;;;;;5088937;28;1140;-77
2022/11/07 05:42:57;;;;;;;;;;;;;;;;;;5086453;28;1965;-78
2022/11/07 05:45:22;;;;;;;;;;;;;;;;;;5083551;28;1196;-78
2022/11/07 05:47:48;;;;;;;;;;;;;;;;;;5091767;28;1140;-78
2022/11/07 05:50:13;;;;;;;;;;;;;;;;;;5094118;28;1171;-78
2022/11/07 05:52:38;;;;;;;;;;;;;;;;;;5106578;28;1195;-78
2022/11/07 05:55:04;;;;;;;;;;;;;;;;;;5105286;28;837;-78
2022/11/07 05:57:29;;;;;;;;;;;;;;;;;;5103673;28;1050;-78
2022/11/07 05:59:55;;;;;;;;;;;;;;;;;;5110285;28;1210;-78
2022/11/07 06:02:20;;;;;;;;;;;;;;;;;;5114969;28;1902;-78
2022/11/07 06:04:45;;;;;;;;;;;;;;;;;;5113923;28;1058;-79
2022/11/07 06:07:11;;;;;;;;;;;;;;;;;;5098855;28;1162;-79
2022/11/07 06:09:36;;;;;;;;;;;;;;;;;;5110261;28;1122;-79
2022/11/07 06:12:02;;;;;;;;;;;;;;;;;;5113407;28;1114;-78
2022/11/07 06:14:30;;;;;;;;;;;;;;;;;;5113324;28;860;-78
2022/11/07 06:16:55;;;;;;;;;;;;;;;;;;5092790;28;1214;-78
2022/11/07 06:19:20;;;;;;;;;;;;;;;;;;5108013;28;1034;-78
2022/11/07 06:21:45;;;;;;;;;;;;;;;;;;5109779;28;967;-78
2022/11/07 06:24:11;;;;;;;;;;;;;;;;;;5094106;28;1887;-77
2022/11/07 06:26:36;;;;;;;;;;;;;;;;;;5113205;28;832;-77
2022/11/07 06:29:01;;;;;;;;;;;;;;;;;;5113135;28;1112;-77
2022/11/07 06:31:26;;;;;;;;;;;;;;;;;;5112091;28;896;-78
2022/11/07 06:33:52;;;;;;;;;;;;;;;;;;5090112;28;1351;-78
2022/11/07 06:36:18;;;;;;;;;;;;;;;;;;5096035;28;891;-77
2022/11/07 06:38:43;;;;;;;;;;;;;;;;;;5092058;28;820;-78
2022/11/07 06:41:10;;;;;;;;;;;;;;;;;;5093143;28;1030;-78
2022/11/07 06:43:36;;;;;;;;;;;;;;;;;;5092340;28;1918;-77
2022/11/07 06:46:03;;;;;;;;;;;;;;;;;;5092261;28;1115;-78
2022/11/07 06:48:28;;;;;;;;;;;;;;;;;;5093120;28;821;-78
2022/11/07 06:51:01;;;;;;;;;;;;;;;;;;5093482;28;1353;-78
2022/11/07 06:53:26;;;;;;;;;;;;;;;;;;5092610;28;844;-77
2022/11/07 06:55:52;;;;;;;;;;;;;;;;;;5074928;28;1296;-78
2022/11/07 06:58:17;;;;;;;;;;;;;;;;;;5074687;28;1282;-78
2022/11/07 07:00:42;;;;;;;;;;;;;;;;;;5092281;28;899;-77
2022/11/07 07:03:08;;;;;;;;;;;;;;;;;;5092162;28;1887;-79
2022/11/07 07:05:34;;;;;;;;;;;;;;;;;;5090999;28;1170;-78
2022/11/07 07:07:59;;;;;;;;;;;;;;;;;;5074855;28;1162;-77
2022/11/07 07:10:27;;;;;;;;;;;;;;;;;;5091580;28;1328;-78
2022/11/07 07:12:53;;;;;;;;;;;;;;;;;;5091891;28;1095;-77
2022/11/07 07:15:18;;;;;;;;;;;;;;;;;;5093873;28;1107;-78
2022/11/07 07:17:43;;;;;;;;;;;;;;;;;;5073897;28;1432;-78
2022/11/07 07:20:09;;;;;;;;;;;;;;;;;;5074021;28;1269;-78
2022/11/07 07:22:34;;;;;;;;;;;;;;;;;;5073552;28;1961;-77
2022/11/07 07:24:59;;;;;;;;;;;;;;;;;;5091081;28;797;-78
2022/11/07 07:27:25;;;;;;;;;;;;;;;;;;5092051;28;1072;-78
2022/11/07 07:29:52;;;;;;;;;;;;;;;;;;5091179;28;1281;-79
2022/11/07 07:32:17;;;;;;;;;;;;;;;;;;5090968;28;865;-79
2022/11/07 07:34:43;;;;;;;;;;;;;;;;;;5074842;28;1159;-80
2022/11/07 07:37:08;;;;;;;;;;;;;;;;;;5074476;28;1242;-79
2022/11/07 07:39:33;;;;;;;;;;;;;;;;;;5090837;28;1272;-79
2022/11/07 07:41:58;;;;;;;;;;;;;;;;;;5091250;28;1002;-79
2022/11/07 07:44:24;;;;;;;;;;;;;;;;;;5091044;28;1905;-79
2022/11/07 07:46:49;;;;;;;;;;;;;;;;;;5092409;28;790;-79
2022/11/07 07:49:14;;;;;;;;;;;;;;;;;;5090905;28;1238;-79
2022/11/07 07:51:40;;;;;;;;;;;;;;;;;;5092050;28;987;-79
2022/11/07 07:54:05;;;;;;;;;;;;;;;;;;5090788;28;1002;-79
2022/11/07 07:56:30;;;;;;;;;;;;;;;;;;5069939;28;1505;-78
2022/11/07 07:58:55;;;;;;;;;;;;;;;;;;5083551;28;1160;-77
2022/11/07 08:01:21;;;;;;;;;;;;;;;;;;5082880;28;1210;-78
2022/11/07 08:03:46;;;;;;;;;;;;;;;;;;5086278;28;1963;-78
2022/11/07 08:06:11;;;;;;;;;;;;;;;;;;5094273;28;837;-78
2022/11/07 08:08:36;;;;;;;;;;;;;;;;;;5093263;28;1142;-78
2022/11/07 08:11:03;;;;;;;;;;;;;;;;;;5077321;28;1303;-78
2022/11/07 08:13:28;;;;;;;;;;;;;;;;;;5095249;28;935;-78
2022/11/07 08:15:54;;;;;;;;;;;;;;;;;;5077430;28;1171;-78
2022/11/07 08:18:20;;;;;;;;;;;;;;;;;;5077402;28;1278;-78
2022/11/07 08:20:48;;;;;;;;;;;;;;;;;;5095155;28;860;-78
2022/11/07 08:23:13;;;;;;;;;;;;;;;;;;5094174;28;1953;-78
2022/11/07 08:25:38;;;;;;;;;;;;;;;;;;5076865;28;1166;-78
2022/11/07 08:28:03;;;;;;;;;;;;;;;;;;5076310;28;1305;-78
2022/11/07 08:30:30;;;;;;;;;;;;;;;;;;5075752;28;1169;-78
2022/11/07 08:32:57;;;;;;;;;;;;;;;;;;5092848;28;1278;-78
2022/11/07 08:35:23;;;;;;;;;;;;;;;;;;5094330;28;899;-78
2022/11/07 08:37:50;;;;;;;;;;;;;;;;;;5093031;28;852;-78
2022/11/07 08:40:15;;;;;;;;;;;;;;;;;;5092574;28;1126;-77
2022/11/07 08:42:41;;;;;;;;;;;;;;;;;;5075505;28;1910;-78
2022/11/07 08:45:06;;;;;;;;;;;;;;;;;;5075847;28;1279;-72
2022/11/07 08:47:31;;;;;;;;;;;;;;;;;;5093494;28;877;-72
2022/11/07 08:49:57;;;;;;;;;;;;;;;;;;5092448;28;1277;-72
2022/11/07 08:52:22;;;;;;;;;;;;;;;;;;5092286;28;1336;-73
2022/11/07 08:54:49;;;;;;;;;;;;;;;;;;5075367;28;1162;-72
2022/11/07 08:57:14;;;;;;;;;;;;;;;;;;5075654;28;1296;-73
2022/11/07 08:59:42;;;;;;;;;;;;;;;;;;5092116;28;769;-72
2022/11/07 09:02:09;;;;;;;;;;;;;;;;;;5075563;28;1126;-73
2022/11/07 09:04:35;;;;;;;;;;;;;;;;;;5091432;28;1953;-73
2022/11/07 09:07:00;;;;;;;;;;;;;;;;;;5092571;28;1215;-72
2022/11/07 09:09:25;;;;;;;;;;;;;;;;;;5093923;28;939;-72
2022/11/07 09:11:50;;;;;;;;;;;;;;;;;;5089138;28;1186;-73
2022/11/07 09:14:15;;;;;;;;;;;;;;;;;;5080108;28;1181;-72
2022/11/07 09:16:41;;;;;;;;;;;;;;;;;;5078237;28;1069;-78
2022/11/07 09:19:08;;;;;;;;;;;;;;;;;;5073481;28;986;-78
2022/11/07 09:21:33;;;;;;;;;;;;;;;;;;5072937;28;824;-77
2022/11/07 09:24:02;;;;;;;;;;;;;;;;;;5055626;28;1912;-78
2022/11/07 09:26:30;;;;;;;;;;;;;;;;;;5055741;28;1246;-78
2022/11/07 09:28:55;;;;;;;;;;;;;;;;;;5072764;28;1373;-77
2022/11/07 09:31:21;;;;;;;;;;;;;;;;;;5073255;28;909;-78
2022/11/07 09:33:46;;;;;;;;;;;;;;;;;;5072387;28;829;-77
2022/11/07 09:36:11;;;;;;;;;;;;;;;;;;5071595;28;1178;-78
2022/11/07 09:38:37;;;;;;;;;;;;;;;;;;5071079;28;1341;-78
2022/11/07 09:41:12;;;;;;;;;;;;;;;;;;5071670;28;1134;-78
2022/11/07 09:44:01;;;;;;;;;;;;;;;;;;5071941;28;1973;-78
2022/11/07 09:46:29;;;;;;;;;;;;;;;;;;5071111;28;1182;-78
2022/11/07 09:49:00;;;;;;;;;;;;;;;;;;5070764;28;1195;-78
2022/11/07 09:51:31;;;;;;;;;;;;;;;;;;5072503;28;928;-78
2022/11/07 09:53:58;;;;;;;;;;;;;;;;;;5071936;28;919;-78
2022/11/07 09:56:25;;;;;;;;;;;;;;;;;;5071733;28;1348;-77
2022/11/07 09:58:53;;;;;;;;;;;;;;;;;;5071920;28;1150;-77
2022/11/07 10:01:19;;;;;;;;;;;;;;;;;;5071540;28;938;-77
2022/11/07 10:03:45;;;;;;;;;;;;;;;;;;5072858;28;1906;-77
2022/11/07 10:06:16;;;;;;;;;;;;;;;;;;5055443;28;1348;-77
2022/11/07 10:08:48;;;;;;;;;;;;;;;;;;5071472;28;1230;-77
2022/11/07 10:11:19;;;;;;;;;;;;;;;;;;5073170;28;766;-77
2022/11/07 10:13:56;;;;;;;;;;;;;;;;;;5070595;28;1202;-77
2022/11/07 10:16:31;;;;;;;;;;;;;;;;;;5072454;28;1062;-78
2022/11/07 10:19:18;;;;;;;;;;;;;;;;;;5071531;28;948;-78
2022/11/07 10:22:02;;;;;;;;;;;;;;;;;;5072530;28;1006;-77
2022/11/07 10:24:36;;;;;;;;;;;;;;;;;;5072476;28;1906;-78
2022/11/07 10:27:01;;;;;;;;;;;;;;;;;;5072706;28;1215;-78
2022/11/07 10:29:28;;;;;;;;;;;;;;;;;;5072480;28;911;-77
2022/11/07 10:31:56;;;;;;;;;;;;;;;;;;5070996;28;1151;-78
2022/11/07 10:34:27;;;;;;;;;;;;;;;;;;5072660;28;896;-78
2022/11/07 10:36:52;;;;;;;;;;;;;;;;;;5071366;28;1226;-78
2022/11/07 10:39:18;;;;;;;;;;;;;;;;;;5071667;28;907;-78
2022/11/07 10:42:10;;;;;;;;;;;;;;;;;;5070553;28;1129;-78
2022/11/07 10:44:38;;;;;;;;;;;;;;;;;;5068103;28;1910;-77
2022/11/07 10:47:14;;;;;;;;;;;;;;;;;;5071856;28;1268;-77
2022/11/07 10:49:39;;;;;;;;;;;;;;;;;;5072834;28;908;-76
2022/11/07 10:52:06;;;;;;;;;;;;;;;;;;5071483;28;860;-78
2022/11/07 10:54:33;;;;;;;;;;;;;;;;;;5071237;28;1334;-78
2022/11/07 10:57:03;;;;;;;;;;;;;;;;;;5072601;28;1225;-78
2022/11/07 10:59:30;;;;;;;;;;;;;;;;;;5075312;28;841;-76
2022/11/07 11:01:56;;;;;;;;;;;;;;;;;;5073869;28;757;-77
2022/11/07 11:04:23;;;;;;;;;;;;;;;;;;5072875;28;1965;-77
2022/11/07 11:07:02;;;;;;;;;;;;;;;;;;5071702;28;1392;-77
2022/11/07 11:09:29;;;;;;;;;;;;;;;;;;5071751;28;1170;-77
2022/11/07 11:11:55;;;;;;;;;;;;;;;;;;5071541;28;1355;-77
2022/11/07 11:14:20;;;;;;;;;;;;;;;;;;5054585;28;1254;-78
2022/11/07 11:16:48;;;;;;;;;;;;;;;;;;5071977;28;987;-78
2022/11/07 11:19:23;;;;;;;;;;;;;;;;;;5074388;28;1155;-78
2022/11/07 11:21:49;;;;;;;;;;;;;;;;;;5082489;28;1206;-78
2022/11/07 11:24:38;;;;;;;;;;;;;;;;;;5070994;28;1906;-77
2022/11/07 11:27:14;;;;;;;;;;;;;;;;;;5070889;28;1309;-76
2022/11/07 11:30:00;;;;;;;;;;;;;;;;;;5069745;28;1226;-76
2022/11/07 11:32:43;;;;;;;;;;;;;;;;;;5071038;28;1206;-77
2022/11/07 11:35:09;;;;;;;;;;;;;;;;;;5071364;28;1215;-78
2022/11/07 11:37:37;;;;;;;;;;;;;;;;;;5070644;28;1214;-75
2022/11/07 11:40:03;;;;;;;;;;;;;;;;;;5073806;28;943;-76
2022/11/07 11:42:47;;;;;;;;;;;;;;;;;;5076418;28;814;-77
2022/11/07 11:45:31;;;;;;;;;;;;;;;;;;5074388;28;1214;-77
2022/11/07 11:48:09;;;;;;;;;;;;;;;;;;5075412;28;840;-77
2022/11/07 11:50:43;;;;;;;;;;;;;;;;;;5076011;28;1135;-78
2022/11/07 11:53:14;;;;;;;;;;;;;;;;;;5075642;28;991;-78
2022/11/07 11:55:44;;;;;;;;;;;;;;;;;;5075060;28;861;-78
2022/11/07 11:58:32;;;;;;;;;;;;;;;;;;5075454;28;905;-78
2022/11/07 12:01:16;;;;;;;;;;;;;;;;;;5073360;28;1185;-78
2022/11/07 12:03:41;;;;;;;;;;;;;;;;;;5074502;28;2012;-77
2022/11/07 12:06:13;;;;;;;;;;;;;;;;;;5073931;28;1175;-77
2022/11/07 12:08:54;;;;;;;;;;;;;;;;;;5074781;28;1438;-77
2022/11/07 12:11:19;;;;;;;;;;;;;;;;;;5075224;28;928;-78
2022/11/07 12:13:56;;;;;;;;;;;;;;;;;;5073522;28;1265;-76
2022/11/07 12:16:21;;;;;;;;;;;;;;;;;;5073840;28;1372;-76
2022/11/07 12:19:02;;;;;;;;;;;;;;;;;;5073582;28;1166;-77
2022/11/07 12:21:31;;;;;;;;;;;;;;;;;;5074611;28;864;-77
2022/11/07 12:24:06;;;;;;;;;;;;;;;;;;5073304;28;1906;-77
2022/11/07 12:26:37;;;;;;;;;;;;;;;;;;5073632;28;1241;-76
2022/11/07 12:29:02;;;;;;;;;;;;;;;;;;5073082;28;1196;-77
2022/11/07 12:31:38;;;;;;;;;;;;;;;;;;5074024;28;1286;-77
2022/11/07 12:34:03;;;;;;;;;;;;;;;;;;5073339;28;1146;-77
2022/11/07 12:36:44;;;;;;;;;;;;;;;;;;5074762;28;876;-77
2022/11/07 12:39:21;;;;;;;;;;;;;;;;;;5073689;28;1167;-77
2022/11/07 12:41:57;;;;;;;;;;;;;;;;;;5073245;28;1171;-77
2022/11/07 12:44:29;;;;;;;;;;;;;;;;;;5073783;28;1909;-77
2022/11/07 12:46:56;;;;;;;;;;;;;;;;;;5073189;28;1105;-78
2022/11/07 12:49:40;;;;;;;;;;;;;;;;;;5073399;28;1301;-78
2022/11/07 12:52:24;;;;;;;;;;;;;;;;;;5074948;28;844;-78
2022/11/07 12:54:49;;;;;;;;;;;;;;;;;;5073134;28;1218;-77
2022/11/07 12:57:19;;;;;;;;;;;;;;;;;;5074946;28;997;-77
2022/11/07 12:59:49;;;;;;;;;;;;;;;;;;5074325;28;920;-79
2022/11/07 13:02:14;;;;;;;;;;;;;;;;;;5073383;28;1174;-77
2022/11/07 13:04:54;;;;;;;;;;;;;;;;;;5072605;28;1975;-77
2022/11/07 13:07:26;;;;;;;;;;;;;;;;;;5074321;28;872;-77
2022/11/07 13:09:57;;;;;;;;;;;;;;;;;;5073852;28;995;-77
2022/11/07 13:12:26;;;;;;;;;;;;;;;;;;5073372;28;1291;-78
2022/11/07 13:14:52;;;;;;;;;;;;;;;;;;5074340;28;980;-78
2022/11/07 13:17:26;;;;;;;;;;;;;;;;;;5074283;28;922;-75
2022/11/07 13:19:57;;;;;;;;;;;;;;;;;;5074304;28;836;-76
2022/11/07 13:22:39;;;;;;;;;;;;;;;;;;5074417;28;845;-76
2022/11/07 13:25:06;;;;;;;;;;;;;;;;;;5073883;28;904;-77
2022/11/07 13:27:33;;;;;;;;;;;;;;;;;;5072270;28;1263;-76
2022/11/07 13:30:08;;;;;;;;;;;;;;;;;;5071933;28;1151;-77
2022/11/07 13:32:37;;;;;;;;;;;;;;;;;;5073772;28;915;-77
2022/11/07 13:35:06;;;;;;;;;;;;;;;;;;5073449;28;820;-77
2022/11/07 13:37:35;;;;;;;;;;;;;;;;;;5071857;28;1290;-77
2022/11/07 13:40:12;;;;;;;;;;;;;;;;;;5071134;28;1484;-77
2022/11/07 13:42:39;;;;;;;;;;;;;;;;;;5071389;28;2011;-77
2022/11/07 13:45:18;;;;;;;;;;;;;;;;;;5072791;28;924;-77
2022/11/07 13:47:44;;;;;;;;;;;;;;;;;;5072482;28;833;-77
2022/11/07 13:50:16;;;;;;;;;;;;;;;;;;5071713;28;1161;-78
2022/11/07 13:52:47;;;;;;;;;;;;;;;;;;5072337;28;805;-78
2022/11/07 13:55:20;;;;;;;;;;;;;;;;;;5070678;28;1281;-78
2022/11/07 13:57:48;;;;;;;;;;;;;;;;;;5071869;28;895;-78
2022/11/07 14:00:15;;;;;;;;;;;;;;;;;;5070969;28;1165;-77
2022/11/07 14:02:51;;;;;;;;;;;;;;;;;;5071531;28;1918;-78
2022/11/07 14:05:17;;;;;;;;;;;;;;;;;;5072662;28;844;-77
2022/11/07 14:07:46;;;;;;;;;;;;;;;;;;5054184;28;1273;-78
2022/11/07 14:10:30;;;;;;;;;;;;;;;;;;5071571;28;1143;-77
2022/11/07 14:13:06;;;;;;;;;;;;;;;;;;5071888;28;907;-78
2022/11/07 14:15:31;;;;;;;;;;;;;;;;;;5072596;28;805;-77
2022/11/07 14:17:57;;;;;;;;;;;;;;;;;;5071691;28;1225;-78
2022/11/07 14:20:22;;;;;;;;;;;;;;;;;;5073167;28;923;-78
2022/11/07 14:22:52;;;;;;;;;;;;;;;;;;5071166;28;1969;-80
2022/11/07 14:25:28;;;;;;;;;;;;;;;;;;5071794;28;1060;-79
2022/11/07 14:27:54;;;;;;;;;;;;;;;;;;5071456;28;1314;-79
2022/11/07 14:30:20;;;;;;;;;;;;;;;;;;5055022;28;1301;-79
2022/11/07 14:32:48;;;;;;;;;;;;;;;;;;5072331;28;730;-79
2022/11/07 14:35:16;;;;;;;;;;;;;;;;;;5072896;28;801;-80
2022/11/07 14:37:41;;;;;;;;;;;;;;;;;;5072404;28;1062;-79
2022/11/07 14:40:07;;;;;;;;;;;;;;;;;;5071835;28;1106;-79
2022/11/07 14:42:32;;;;;;;;;;;;;;;;;;5072219;28;1136;-79
2022/11/07 14:44:58;;;;;;;;;;;;;;;;;;5071118;28;1906;-80
2022/11/07 14:47:29;;;;;;;;;;;;;;;;;;5071984;28;1285;-79
2022/11/07 14:49:55;;;;;;;;;;;;;;;;;;5072324;28;896;-79
2022/11/07 14:52:20;;;;;;;;;;;;;;;;;;5070679;28;944;-79
2022/11/07 14:54:46;;;;;;;;;;;;;;;;;;5070353;28;1207;-79
2022/11/07 14:57:12;;;;;;;;;;;;;;;;;;5071673;28;794;-79
2022/11/07 14:59:38;;;;;;;;;;;;;;;;;;5071859;28;856;-80
2022/11/07 15:02:06;;;;;;;;;;;;;;;;;;5070064;28;1391;-79
2022/11/07 15:04:36;;;;;;;;;;;;;;;;;;5070305;28;1978;-80
2022/11/07 15:07:28;;;;;;;;;;;;;;;;;;5071167;28;930;-79
2022/11/07 15:09:54;;;;;;;;;;;;;;;;;;5070035;28;1296;-80
2022/11/07 15:12:21;;;;;;;;;;;;;;;;;;5070436;28;1158;-80
2022/11/07 15:15:02;;;;;;;;;;;;;;;;;;5070637;28;1170;-80
2022/11/07 15:17:28;;;;;;;;;;;;;;;;;;5075420;28;861;-79
2022/11/07 15:19:59;;;;;;;;;;;;;;;;;;5074045;28;1042;-79
2022/11/07 15:22:27;;;;;;;;;;;;;;;;;;5075593;28;813;-79
2022/11/07 15:24:53;;;;;;;;;;;;;;;;;;5073721;28;1977;-79
2022/11/07 15:27:19;;;;;;;;;;;;;;;;;;5057454;28;1124;-79
2022/11/07 15:29:49;;;;;;;;;;;;;;;;;;5074150;28;1341;-80
2022/11/07 15:32:17;;;;;;;;;;;;;;;;;;5075925;28;848;-81
2022/11/07 15:34:42;;;;;;;;;;;;;;;;;;5073847;28;1308;-79
2022/11/07 15:37:13;;;;;;;;;;;;;;;;;;5076020;28;947;-80
2022/11/07 15:39:39;;;;;;;;;;;;;;;;;;5076332;28;860;-79
2022/11/07 15:42:04;;;;;;;;;;;;;;;;;;5070929;28;1218;-80
2022/11/07 15:44:32;;;;;;;;;;;;;;;;;;5095467;28;1973;-80
2022/11/07 15:46:58;;;;;;;;;;;;;;;;;;5078963;28;1198;-80
2022/11/07 15:49:26;;;;;;;;;;;;;;;;;;5095072;28;1245;-80
2022/11/07 15:51:52;;;;;;;;;;;;;;;;;;5096661;28;852;-80
2022/11/07 15:54:36;;;;;;;;;;;;;;;;;;5097186;28;884;-82
2022/11/07 15:57:03;;;;;;;;;;;;;;;;;;5096218;28;907;-80
2022/11/07 15:59:31;;;;;;;;;;;;;;;;;;5096402;28;1284;-79
2022/11/07 16:01:56;;;;;;;;;;;;;;;;;;5096715;28;1263;-76
2022/11/07 16:04:22;;;;;;;;;;;;;;;;;;5095852;28;1951;-77
2022/11/07 16:06:47;;;;;;;;;;;;;;;;;;5097023;28;1166;-76
2022/11/07 16:09:15;;;;;;;;;;;;;;;;;;5079837;28;1440;-76
2022/11/07 16:11:40;;;;;;;;;;;;;;;;;;5097877;28;868;-78
2022/11/07 16:14:16;;;;;;;;;;;;;;;;;;5096935;28;805;-78
2022/11/07 16:16:43;;;;;;;;;;;;;;;;;;5097047;28;1098;-79
2022/11/07 16:19:13;;;;;;;;;;;;;;;;;;5075418;28;1179;-80
2022/11/07 16:21:38;;;;;;;;;;;;;;;;;;5076979;28;869;-80
2022/11/07 16:24:03;;;;;;;;;;;;;;;;;;5074417;28;1906;-80
2022/11/07 16:26:29;;;;;;;;;;;;;;;;;;5057325;28;1313;-80
2022/11/07 16:28:54;;;;;;;;;;;;;;;;;;5075471;28;1100;-81
2022/11/07 16:31:21;;;;;;;;;;;;;;;;;;5076136;28;974;-79
2022/11/07 16:33:47;;;;;;;;;;;;;;;;;;5075881;28;841;-80
2022/11/07 16:36:24;;;;;;;;;;;;;;;;;;5075023;28;951;-79
2022/11/07 16:38:49;;;;;;;;;;;;;;;;;;5074665;28;1269;-79
2022/11/07 16:41:14;;;;;;;;;;;;;;;;;;5077807;28;914;-80
2022/11/07 16:43:40;;;;;;;;;;;;;;;;;;5066622;28;1967;-80
2022/11/07 16:46:11;;;;;;;;;;;;;;;;;;5074923;28;1295;-79
2022/11/07 16:48:36;;;;;;;;;;;;;;;;;;5075034;28;1100;-80
2022/11/07 16:51:02;;;;;;;;;;;;;;;;;;5075000;28;907;-79
2022/11/07 16:53:27;;;;;;;;;;;;;;;;;;5056991;28;1286;-79
2022/11/07 16:55:54;;;;;;;;;;;;;;;;;;5073270;28;876;-78
2022/11/07 16:58:22;;;;;;;;;;;;;;;;;;5073485;28;1197;-79
2022/11/07 17:00:48;;;;;;;;;;;;;;;;;;5074311;28;1242;-79
2022/11/07 17:03:14;;;;;;;;;;;;;;;;;;5073977;28;1964;-79
2022/11/07 17:05:39;;;;;;;;;;;;;;;;;;5073400;28;1241;-80
2022/11/07 17:08:09;;;;;;;;;;;;;;;;;;5057024;28;1155;-79
2022/11/07 17:10:35;;;;;;;;;;;;;;;;;;5075573;28;1313;-80
2022/11/07 17:13:00;;;;;;;;;;;;;;;;;;5074569;28;1122;-79
2022/11/07 17:15:25;;;;;;;;;;;;;;;;;;5073962;28;948;-79
2022/11/07 17:17:51;;;;;;;;;;;;;;;;;;5073437;28;903;-80
2022/11/07 17:20:20;;;;;;;;;;;;;;;;;;5074035;28;1218;-80
2022/11/07 17:22:46;;;;;;;;;;;;;;;;;;5057017;28;1959;-80
2022/11/07 17:25:14;;;;;;;;;;;;;;;;;;5073570;28;1427;-80